Time;durP1;ratioP1;P1;durP2;ratioP2;P2;SDS_P1;SDS_P2;PMS_P1;PMS_P2;Temp;Humidity;BMP_temperature;BMP_pressure;BME280_temperature;BME280_humidity;BME280_pressure;Samples;Min_cycle;Max_cycle;Signal;HPM_P1;HPM_P2
2023/01/17 00:02:19;;;;;;;19.10;10.20;;;;;;;1.56;88.74;93792.38;110356;1277;22122;-72
2023/01/17 00:10:24;;;;;;;34.30;15.50;;;;;;;1.54;88.88;93787.73;110346;1277;22121;-73
2023/01/17 00:12:57;;;;;;;25.20;14.10;;;;;;;1.60;89.33;93783.67;110125;1277;22135;-72
2023/01/17 00:15:27;;;;;;;30.00;16.30;;;;;;;1.67;89.39;93790.17;110245;1277;22229;-73
2023/01/17 00:17:57;;;;;;;28.90;14.70;;;;;;;1.69;89.00;93774.02;110352;1278;22866;-72
2023/01/17 00:26:17;;;;;;;28.30;14.10;;;;;;;1.73;88.89;93752.45;110266;1277;22134;-72
2023/01/17 01:33:51;;;;;;;29.60;14.80;;;;;;;1.40;89.39;93733.52;110152;1277;22153;-72
2023/01/17 01:36:19;;;;;;;22.70;11.90;;;;;;;1.36;89.45;93734.26;110105;1278;22153;-72
2023/01/17 01:38:49;;;;;;;24.50;13.10;;;;;;;1.28;88.98;93738.86;110305;1278;22093;-72
2023/01/17 01:41:17;;;;;;;22.40;11.70;;;;;;;1.21;88.96;93741.56;110337;1277;22306;-72
2023/01/17 01:43:47;;;;;;;23.00;14.00;;;;;;;1.15;88.91;93748.73;110221;1278;22111;-72
2023/01/17 01:46:21;;;;;;;23.80;12.70;;;;;;;1.12;89.18;93749.29;110313;1277;22096;-72
2023/01/17 01:49:14;;;;;;;19.00;11.50;;;;;;;1.06;89.31;93742.79;110223;1278;22147;-72
2023/01/17 01:51:49;;;;;;;18.30;10.30;;;;;;;0.99;89.79;93743.40;110260;1277;22209;-72
2023/01/17 01:54:43;;;;;;;24.90;13.30;;;;;;;0.96;89.45;93746.88;110232;1278;22242;-72
2023/01/17 01:57:15;;;;;;;;;;;;;;;0.96;89.76;93739.10;110140;1269;22209;-72
2023/01/17 01:59:53;;;;;;;23.70;12.90;;;;;;;0.99;89.89;93731.09;110301;1277;22667;-72
2023/01/17 02:02:21;;;;;;;30.40;13.70;;;;;;;1.00;89.91;93732.81;110317;1278;22977;-72
2023/01/17 02:04:50;;;;;;;23.10;12.90;;;;;;;1.02;90.20;93721.19;110313;1277;22204;-72
2023/01/17 02:07:32;;;;;;;25.60;14.10;;;;;;;1.07;90.61;93713.52;110319;1277;22870;-72
2023/01/17 02:10:01;;;;;;;28.50;14.10;;;;;;;1.10;90.24;93711.73;110327;1277;22141;-72
2023/01/17 02:12:30;;;;;;;29.40;16.80;;;;;;;1.11;90.14;93711.91;110321;1267;22103;-72
2023/01/17 02:14:58;;;;;;;34.00;17.00;;;;;;;1.12;90.12;93707.91;110324;1278;22227;-72
2023/01/17 02:18:05;;;;;;;26.60;14.90;;;;;;;1.12;90.17;93710.00;110317;1264;22125;-72
2023/01/17 02:21:17;;;;;;;32.00;16.80;;;;;;;1.14;90.28;93700.77;110259;1278;22607;-72
2023/01/17 02:24:16;;;;;;;39.00;16.70;;;;;;;1.17;90.33;93698.66;109929;1283;22217;-72
2023/01/17 02:26:59;;;;;;;34.60;18.00;;;;;;;1.18;90.62;93699.52;110310;1278;22786;-72
2023/01/17 02:29:52;;;;;;;42.40;20.80;;;;;;;1.22;90.55;93703.95;110265;1278;22278;-72
2023/01/17 02:32:26;;;;;;;38.10;20.00;;;;;;;1.29;90.92;93701.80;110333;1278;22988;-72
2023/01/17 02:35:20;;;;;;;35.60;20.20;;;;;;;1.40;91.16;93699.22;110301;1278;22958;-72
2023/01/17 02:38:02;;;;;;;35.20;18.30;;;;;;;1.38;90.90;93694.23;110319;1277;22819;-72
2023/01/17 02:40:40;;;;;;;30.50;15.40;;;;;;;1.35;90.52;93698.42;110237;1278;22190;-72
2023/01/17 02:43:13;;;;;;;27.00;14.80;;;;;;;1.36;90.69;93694.25;110287;1278;22154;-72
2023/01/17 02:45:42;;;;;;;24.90;13.90;;;;;;;1.36;90.45;93693.91;110295;1277;22217;-72
2023/01/17 02:48:13;;;;;;;28.10;14.70;;;;;;;1.35;90.61;93691.15;110315;1277;22096;-72
2023/01/17 02:50:44;;;;;;;34.70;18.00;;;;;;;1.38;91.01;93680.89;110239;1278;22262;-72
2023/01/17 02:53:29;;;;;;;33.00;16.90;;;;;;;1.41;91.03;93687.77;110299;1265;22278;-72
2023/01/17 02:56:35;;;;;;;27.80;15.10;;;;;;;1.45;91.06;93679.04;110256;1278;22094;-72
2023/01/17 02:59:32;;;;;;;31.80;16.50;;;;;;;1.42;90.45;93671.47;110299;1271;22144;-72
2023/01/17 03:02:11;;;;;;;48.50;23.20;;;;;;;1.37;90.75;93667.21;110200;1277;22137;-72
2023/01/17 03:04:48;;;;;;;33.80;18.10;;;;;;;1.36;90.53;93672.77;110076;1277;22144;-72
2023/01/17 03:07:22;;;;;;;21.80;11.90;;;;;;;1.37;90.67;93667.23;110247;1278;22122;-72
2023/01/17 03:10:00;;;;;;;23.40;13.10;;;;;;;1.37;90.68;93669.83;110306;1278;22117;-72
2023/01/17 03:12:30;;;;;;;28.80;15.60;;;;;;;1.37;90.74;93659.77;110115;1277;22119;-72
2023/01/17 03:14:58;;;;;;;32.40;14.80;;;;;;;1.39;91.00;93650.55;110101;1278;22200;-72
2023/01/17 03:17:31;;;;;;;22.70;12.90;;;;;;;1.40;90.79;93643.60;110248;1278;22129;-72
2023/01/17 03:19:59;;;;;;;26.60;14.40;;;;;;;1.41;90.94;93631.98;110290;1278;22136;-72
2023/01/17 03:22:28;;;;;;;26.90;12.50;;;;;;;1.40;90.83;93629.40;110315;1277;22268;-72
2023/01/17 03:24:56;;;;;;;24.80;13.80;;;;;;;1.38;90.85;93631.67;110247;1277;22972;-72
2023/01/17 03:27:24;;;;;;;28.40;13.40;;;;;;;1.42;91.25;93635.09;110251;1278;22603;-72
2023/01/17 03:29:52;;;;;;;21.80;10.90;;;;;;;1.48;91.31;93643.49;110257;1277;22166;-72
2023/01/17 03:32:20;;;;;;;18.20;11.00;;;;;;;1.51;91.27;93645.34;110317;1278;22135;-72
2023/01/17 03:34:48;;;;;;;22.10;11.80;;;;;;;1.53;91.09;93649.14;110307;1278;22841;-72
2023/01/17 03:37:17;;;;;;;22.10;12.70;;;;;;;1.58;91.43;93654.42;110250;1278;22111;-72
2023/01/17 03:39:45;;;;;;;27.80;14.00;;;;;;;1.64;91.52;93655.73;110294;1277;22137;-72
2023/01/17 03:42:13;;;;;;;25.40;14.40;;;;;;;1.68;91.40;93655.66;110290;1274;22159;-72
2023/01/17 03:44:41;;;;;;;24.30;13.80;;;;;;;1.73;91.63;93663.20;110277;1278;23010;-72
2023/01/17 03:47:10;;;;;;;22.00;12.10;;;;;;;1.79;91.78;93660.86;110279;1277;22129;-72
2023/01/17 03:49:39;;;;;;;24.90;14.10;;;;;;;1.85;91.48;93657.64;110273;1278;22211;-72
2023/01/17 03:52:08;;;;;;;23.50;13.10;;;;;;;1.80;90.40;93643.34;110230;1278;22131;-72
2023/01/17 03:54:36;;;;;;;25.30;13.80;;;;;;;1.77;90.42;93637.66;110290;1266;22148;-72
2023/01/17 03:57:04;;;;;;;31.20;15.10;;;;;;;1.77;90.51;93635.23;110284;1278;22285;-72
2023/01/17 03:59:32;;;;;;;27.80;13.60;;;;;;;1.80;90.44;93632.94;110108;1278;22140;-72
2023/01/17 04:02:01;;;;;;;28.40;14.10;;;;;;;1.73;90.07;93626.28;110294;1277;22195;-72
2023/01/17 04:04:30;;;;;;;26.50;13.50;;;;;;;1.72;90.09;93621.45;110295;1278;22187;-72
2023/01/17 04:06:58;;;;;;;26.50;14.30;;;;;;;1.66;89.71;93613.92;110291;1277;22310;-72
2023/01/17 04:09:26;;;;;;;25.10;14.30;;;;;;;1.65;89.92;93616.02;110292;1278;22325;-72
2023/01/17 04:11:54;;;;;;;19.50;11.30;;;;;;;1.66;90.15;93625.70;110280;1278;22357;-72
2023/01/17 04:14:22;;;;;;;28.70;15.10;;;;;;;1.62;89.96;93621.96;110267;1278;22863;-72
2023/01/17 04:16:50;;;;;;;30.60;16.50;;;;;;;1.47;90.51;93622.52;110232;1278;22281;-72
2023/01/17 04:19:19;;;;;;;24.80;14.30;;;;;;;1.42;90.38;93624.52;110299;1278;22112;-72
2023/01/17 04:21:48;;;;;;;17.60;10.40;;;;;;;1.40;90.26;93632.70;110258;1277;22874;-72
2023/01/17 04:24:16;;;;;;;18.10;10.50;;;;;;;1.34;90.11;93629.48;110264;1278;23044;-72
2023/01/17 04:26:45;;;;;;;21.10;12.20;;;;;;;1.27;90.15;93631.48;110293;1266;22107;-72
2023/01/17 04:29:13;;;;;;;24.30;13.50;;;;;;;1.24;90.68;93632.23;110295;1278;23179;-72
2023/01/17 04:31:41;;;;;;;42.70;23.10;;;;;;;1.25;90.95;93631.01;110228;1277;22098;-72
2023/01/17 04:34:10;;;;;;;42.10;23.60;;;;;;;1.25;90.99;93628.24;110296;1277;22109;-72
2023/01/17 04:36:38;;;;;;;32.30;18.50;;;;;;;1.23;90.81;93631.38;110302;1278;22135;-72
2023/01/17 04:39:06;;;;;;;37.20;20.40;;;;;;;1.17;90.65;93629.73;110299;1278;22856;-72
2023/01/17 04:41:34;;;;;;;38.00;22.60;;;;;;;1.12;91.17;93621.67;110280;1278;22139;-72
2023/01/17 04:44:03;;;;;;;34.90;21.30;;;;;;;1.05;91.50;93629.04;110295;1278;22109;-71
2023/01/17 04:46:31;;;;;;;39.30;22.10;;;;;;;1.04;91.46;93633.06;110231;1277;22328;-72
2023/01/17 04:48:59;;;;;;;37.70;19.80;;;;;;;1.04;91.43;93621.11;110295;1278;22976;-72
2023/01/17 04:51:27;;;;;;;62.30;37.70;;;;;;;1.02;91.31;93614.20;110269;1278;22155;-72
2023/01/17 04:53:56;;;;;;;66.90;40.30;;;;;;;1.00;91.50;93611.96;110294;1266;22147;-72
2023/01/17 04:56:24;;;;;;;63.60;39.50;;;;;;;0.98;91.41;93619.45;110286;1278;22191;-72
2023/01/17 04:58:52;;;;;;;67.40;41.90;;;;;;;0.99;91.56;93614.59;110288;1278;22191;-72
2023/01/17 05:01:20;;;;;;;50.10;30.50;;;;;;;1.00;91.74;93609.71;110307;1277;22581;-72
2023/01/17 05:03:49;;;;;;;48.70;30.50;;;;;;;1.00;91.68;93611.80;110279;1274;22609;-72
2023/01/17 05:06:17;;;;;;;44.70;26.70;;;;;;;1.03;91.64;93612.79;110286;1278;22192;-72
2023/01/17 05:08:45;;;;;;;54.10;30.60;;;;;;;1.04;91.52;93602.57;110286;1278;22125;-72
2023/01/17 05:11:13;;;;;;;39.60;24.40;;;;;;;1.01;91.60;93609.04;110281;1277;22193;-72
2023/01/17 05:13:41;;;;;;;34.80;18.70;;;;;;;1.00;91.46;93618.20;110284;1278;22824;-72
2023/01/17 05:16:09;;;;;;;45.70;26.30;;;;;;;1.01;91.75;93608.52;110299;1278;22121;-72
2023/01/17 05:18:38;;;;;;;23.90;14.10;;;;;;;1.00;91.79;93621.33;110291;1278;22226;-72
2023/01/17 05:21:06;;;;;;;49.70;31.00;;;;;;;0.97;92.11;93612.70;110276;1277;22307;-72
2023/01/17 05:23:34;;;;;;;49.40;30.10;;;;;;;0.93;92.45;93617.10;110300;1273;22199;-72
2023/01/17 05:26:02;;;;;;;57.50;36.80;;;;;;;0.89;92.46;93619.04;110262;1278;22816;-72
2023/01/17 05:28:31;;;;;;;43.10;26.90;;;;;;;0.91;92.50;93620.24;110301;1278;22183;-72
2023/01/17 05:30:59;;;;;;;96.60;58.70;;;;;;;0.94;92.92;93604.95;110283;1277;22124;-72
2023/01/17 05:33:28;;;;;;;49.10;28.40;;;;;;;0.92;92.98;93606.55;110213;1268;22095;-72
2023/01/17 05:35:57;;;;;;;50.50;30.00;;;;;;;0.87;93.21;93593.12;110297;1277;22102;-72
2023/01/17 05:38:25;;;;;;;74.40;43.20;;;;;;;0.85;93.18;93587.60;110316;1278;22140;-72
2023/01/17 05:40:53;;;;;;;70.10;41.50;;;;;;;0.90;93.21;93584.58;110275;1278;22136;-72
2023/01/17 05:43:21;;;;;;;74.00;43.60;;;;;;;0.92;93.26;93573.84;110294;1278;22157;-72
2023/01/17 05:45:50;;;;;;;60.50;35.90;;;;;;;0.88;93.03;93579.42;110256;1277;22873;-72
2023/01/17 05:48:18;;;;;;;48.70;26.90;;;;;;;0.88;92.88;93586.70;110285;1278;22218;-72
2023/01/17 05:50:46;;;;;;;53.30;32.30;;;;;;;0.83;92.73;93589.70;110298;1278;22125;-72
2023/01/17 05:53:15;;;;;;;53.70;33.10;;;;;;;0.77;92.51;93584.77;110296;1274;22798;-72
2023/01/17 05:55:44;;;;;;;46.50;27.40;;;;;;;0.79;92.77;93589.42;110262;1277;22144;-72
2023/01/17 05:58:19;;;;;;;54.50;31.30;;;;;;;0.80;92.92;93595.45;110231;1277;22102;-73
2023/01/17 06:00:48;;;;;;;42.80;25.60;;;;;;;0.77;92.66;93595.84;110281;1278;22359;-73
2023/01/17 06:03:17;;;;;;;36.40;21.10;;;;;;;0.78;92.60;93599.81;110064;1277;22212;-70
2023/01/17 06:05:45;;;;;;;27.80;14.70;;;;;;;0.83;92.84;93611.69;110268;1277;22263;-71
2023/01/17 06:08:14;;;;;;;78.00;44.90;;;;;;;0.89;93.18;93598.44;110295;1277;22120;-70
2023/01/17 06:10:43;;;;;;;55.10;31.30;;;;;;;0.92;93.07;93604.47;110293;1278;22144;-72
2023/01/17 06:13:14;;;;;;;28.10;16.30;;;;;;;0.94;92.93;93620.36;110272;1277;22086;-70
2023/01/17 06:15:42;;;;;;;32.00;19.10;;;;;;;0.96;93.06;93621.36;110222;1268;22115;-65
2023/01/17 06:18:14;;;;;;;62.60;34.80;;;;;;;0.99;93.43;93632.41;110303;1278;22101;-71
2023/01/17 06:20:42;;;;;;;41.10;25.00;;;;;;;0.98;93.14;93639.36;110282;1278;22863;-68
2023/01/17 06:23:12;;;;;;;41.40;24.40;;;;;;;0.97;92.88;93644.55;110237;1278;22197;-71
2023/01/17 06:25:43;;;;;;;34.40;19.60;;;;;;;1.01;92.95;93654.56;110214;1278;22219;-73
2023/01/17 06:28:14;;;;;;;30.70;19.10;;;;;;;1.07;93.15;93657.94;110217;1278;22163;-70
2023/01/17 06:30:43;;;;;;;40.20;21.50;;;;;;;1.15;93.31;93666.30;110090;1278;22194;-73
2023/01/17 06:33:12;;;;;;;41.50;22.30;;;;;;;1.23;93.37;93670.35;110199;1278;23010;-71
2023/01/17 06:35:49;;;;;;;49.20;26.10;;;;;;;1.26;93.16;93675.49;110284;1278;22272;-68
2023/01/17 06:38:18;;;;;;;40.80;23.80;;;;;;;1.31;93.28;93670.24;110298;1277;22164;-68
2023/01/17 06:40:48;;;;;;;109.80;69.80;;;;;;;1.36;93.50;93684.39;110061;1278;22225;-72
2023/01/17 06:43:16;;;;;;;52.30;29.90;;;;;;;1.38;93.87;93688.67;110073;1278;22141;-70
2023/01/17 06:45:45;;;;;;;53.50;30.80;;;;;;;1.37;93.91;93670.16;110284;1277;23067;-69
2023/01/17 06:48:14;;;;;;;51.50;30.00;;;;;;;1.44;93.84;93656.39;110091;1278;22972;-68
2023/01/17 06:50:42;;;;;;;43.50;24.10;;;;;;;1.52;93.89;93646.02;110303;1277;23097;-69
2023/01/17 06:53:10;;;;;;;37.70;22.40;;;;;;;1.61;93.98;93650.05;110308;1278;22833;-70
2023/01/17 06:55:39;;;;;;;41.40;25.50;;;;;;;1.67;93.82;93651.00;110299;1278;22199;-69
2023/01/17 06:58:08;;;;;;;47.00;27.40;;;;;;;1.72;93.75;93650.39;110280;1278;22493;-70
2023/01/17 07:00:38;;;;;;;78.60;42.30;;;;;;;1.74;93.53;93652.45;110274;1278;22110;-69
2023/01/17 07:03:19;;;;;;;44.40;25.90;;;;;;;1.74;93.65;93651.92;110285;1278;22129;-69
2023/01/17 07:05:49;;;;;;;48.00;25.30;;;;;;;1.80;93.61;93648.70;110230;1277;22252;-69
2023/01/17 07:08:20;;;;;;;50.90;28.50;;;;;;;1.88;93.89;93655.69;110191;1277;22976;-71
2023/01/17 07:10:48;;;;;;;50.50;28.20;;;;;;;1.97;94.17;93669.92;110148;1276;22206;-71
2023/01/17 07:13:17;;;;;;;43.60;23.80;;;;;;;2.03;93.97;93686.12;110279;1276;22285;-70
2023/01/17 07:15:47;;;;;;;42.40;24.10;;;;;;;2.10;93.73;93681.50;110394;1273;22521;-70
2023/01/17 07:18:19;;;;;;;32.80;18.90;;;;;;;2.22;94.12;93684.58;110358;1276;22556;-70
2023/01/17 07:20:48;;;;;;;19.90;12.10;;;;;;;2.32;94.22;93686.65;110377;1276;22134;-71
2023/01/17 07:23:18;;;;;;;24.40;15.70;;;;;;;2.35;93.54;93701.71;110334;1277;22192;-75
2023/01/17 07:25:55;;;;;;;32.90;18.50;;;;;;;2.36;93.58;93691.10;110400;1276;22808;-71
2023/01/17 07:28:25;;;;;;;22.10;13.20;;;;;;;2.34;93.22;93691.48;110178;1274;22332;-71
2023/01/17 07:30:53;;;;;;;25.20;14.60;;;;;;;2.35;93.12;93671.53;110201;1277;22172;-74
2023/01/17 07:33:22;;;;;;;22.50;15.00;;;;;;;2.37;93.15;93662.11;110336;1276;22238;-73
2023/01/17 07:35:51;;;;;;;17.90;10.20;;;;;;;2.46;93.56;93663.34;110437;1276;22926;-73
2023/01/17 07:38:20;;;;;;;18.60;9.90;;;;;;;2.52;93.59;93671.19;110393;1276;22155;-72
2023/01/17 07:40:48;;;;;;;89.80;42.30;;;;;;;2.57;93.48;93671.98;110271;1276;23137;-72
2023/01/17 07:43:16;;;;;;;415.00;216.90;;;;;;;2.56;93.22;93682.23;110416;1276;22250;-71
2023/01/17 07:45:50;;;;;;;76.90;41.40;;;;;;;2.62;93.48;93669.46;110441;1276;22776;-72
2023/01/17 07:48:21;;;;;;;75.40;39.10;;;;;;;2.73;93.76;93672.20;110312;1276;22142;-73
2023/01/17 07:50:53;;;;;;;39.60;21.80;;;;;;;2.82;93.62;93679.83;110313;1276;22131;-70
2023/01/17 07:53:23;;;;;;;21.10;13.30;;;;;;;2.89;93.57;93667.02;110459;1276;22126;-73
2023/01/17 07:55:52;;;;;;;42.90;21.70;;;;;;;2.98;93.52;93664.05;110288;1276;22202;-73
2023/01/17 07:58:21;;;;;;;74.00;42.90;;;;;;;3.06;93.16;93665.98;110391;1276;22839;-75
2023/01/17 08:00:50;;;;;;;23.30;13.70;;;;;;;3.14;93.36;93669.97;110452;1276;22188;-81
2023/01/17 08:03:20;;;;;;;20.90;13.30;;;;;;;3.23;93.58;93671.70;110283;1276;22098;-74
2023/01/17 08:05:54;;;;;;;23.90;15.40;;;;;;;3.30;93.49;93669.80;110348;1276;22182;-76
2023/01/17 08:08:22;;;;;;;20.60;12.80;;;;;;;3.36;93.33;93678.54;110291;1277;22175;-76
2023/01/17 08:10:50;;;;;;;22.60;13.30;;;;;;;3.41;92.91;93674.43;110320;1276;22151;-76
2023/01/17 08:13:20;;;;;;;21.60;12.50;;;;;;;3.39;92.25;93674.65;110443;1277;23009;-80
2023/01/17 08:15:49;;;;;;;25.90;16.30;;;;;;;3.43;92.51;93677.69;110298;1277;22247;-74
2023/01/17 08:18:18;;;;;;;22.60;15.00;;;;;;;3.48;92.44;93676.35;109811;1277;637884;-79
2023/01/17 08:20:46;;;;;;;17.20;11.40;;;;;;;3.55;92.53;93676.56;110455;1267;22282;-73
2023/01/17 08:23:14;;;;;;;17.30;9.20;;;;;;;3.65;92.76;93686.41;110463;1277;22215;-79
2023/01/17 08:25:43;;;;;;;67.10;39.80;;;;;;;3.79;92.98;93674.42;110474;1277;22194;-81
2023/01/17 08:28:11;;;;;;;25.80;15.50;;;;;;;3.92;92.58;93670.66;110433;1277;23047;-75
2023/01/17 08:30:39;;;;;;;28.30;19.50;;;;;;;4.01;92.31;93667.98;110398;1274;22193;-79
2023/01/17 08:33:08;;;;;;;30.70;24.10;;;;;;;4.05;92.21;93672.79;110422;1277;22129;-76
2023/01/17 08:35:36;;;;;;;18.90;12.10;;;;;;;4.08;92.19;93681.39;110438;1276;22291;-77
2023/01/17 08:38:04;;;;;;;17.90;12.50;;;;;;;4.10;90.96;93677.35;110392;1277;22202;-75
2023/01/17 08:40:33;;;;;;;14.90;10.40;;;;;;;4.09;90.51;93684.67;110426;1277;22182;-74
2023/01/17 08:43:02;;;;;;;17.70;11.60;;;;;;;4.08;90.85;93699.32;110423;1276;22262;-75
2023/01/17 08:45:31;;;;;;;21.20;11.70;;;;;;;4.04;90.23;93686.04;110369;1277;22163;-74
2023/01/17 08:47:59;;;;;;;11.90;8.80;;;;;;;4.02;90.26;93691.64;110282;1276;22137;-74
2023/01/17 08:50:27;;;;;;;15.30;11.40;;;;;;;4.09;90.08;93697.41;110435;1276;22246;-80
2023/01/17 08:52:58;;;;;;;11.10;7.40;;;;;;;4.24;90.48;93700.34;110428;1276;22208;-76
2023/01/17 08:55:28;;;;;;;13.40;8.50;;;;;;;4.39;89.86;93702.02;110405;1276;22250;-81
2023/01/17 08:57:56;;;;;;;26.30;15.20;;;;;;;4.64;89.28;93692.16;110408;1276;23140;-72
2023/01/17 09:00:27;;;;;;;23.80;16.30;;;;;;;4.81;89.85;93696.94;110420;1276;22191;-71
2023/01/17 09:02:55;;;;;;;6.50;4.80;;;;;;;4.90;88.08;93693.23;110402;1276;22315;-71
2023/01/17 09:05:23;;;;;;;1.50;1.40;;;;;;;4.99;87.95;93692.63;110399;1276;22965;-68
2023/01/17 09:07:53;;;;;;;3.50;2.10;;;;;;;5.16;84.90;93706.78;110427;1276;22255;-74
2023/01/17 09:10:22;;;;;;;1.90;1.70;;;;;;;5.33;82.64;93700.91;110386;1276;22975;-76
2023/01/17 09:12:50;;;;;;;1.40;1.30;;;;;;;5.56;78.65;93702.30;110268;1276;22103;-72
2023/01/17 09:15:19;;;;;;;1.50;1.30;;;;;;;5.72;80.34;93700.81;110159;1276;22174;-71
2023/01/17 09:17:47;;;;;;;1.60;1.30;;;;;;;5.79;79.27;93701.80;110409;1276;22202;-74
2023/01/17 09:20:15;;;;;;;3.30;2.80;;;;;;;5.87;77.34;93706.08;110395;1276;22322;-74
2023/01/17 09:22:44;;;;;;;2.40;1.90;;;;;;;6.03;75.10;93710.52;110177;1276;22263;-73
2023/01/17 09:25:14;;;;;;;1.70;1.20;;;;;;;6.13;76.95;93703.03;110395;1261;22261;-70
2023/01/17 09:27:46;;;;;;;1.40;0.80;;;;;;;6.19;76.34;93700.58;110381;1276;22991;-71
2023/01/17 09:30:14;;;;;;;2.30;1.60;;;;;;;6.25;77.09;93707.02;110355;1276;22905;-73
2023/01/17 09:32:51;;;;;;;4.20;1.70;;;;;;;6.32;75.87;93720.78;110411;1276;22170;-75
2023/01/17 09:35:19;;;;;;;2.40;2.10;;;;;;;6.38;76.41;93734.02;110293;1276;22846;-75
2023/01/17 09:37:51;;;;;;;3.00;2.00;;;;;;;6.44;75.97;93731.02;110371;1276;22119;-75
2023/01/17 09:40:23;;;;;;;1.90;1.60;;;;;;;6.53;74.31;93739.83;110415;1276;22211;-79
2023/01/17 09:43:01;;;;;;;3.10;1.20;;;;;;;6.62;72.23;93735.16;110400;1276;22165;-71
2023/01/17 09:45:32;;;;;;;1.30;1.20;;;;;;;6.71;72.41;93736.60;110405;1276;22242;-72
2023/01/17 09:48:07;;;;;;;1.50;1.40;;;;;;;6.70;72.14;93737.68;110398;1276;22155;-77
2023/01/17 09:51:07;;;;;;;1.40;1.30;;;;;;;6.64;71.20;93728.28;110407;1264;22144;-80
2023/01/17 09:53:40;;;;;;;2.30;1.70;;;;;;;6.59;72.33;93735.96;110407;1276;22767;-74
2023/01/17 09:56:14;;;;;;;1.60;1.50;;;;;;;6.55;70.72;93730.84;110404;1276;22839;-81
2023/01/17 09:59:28;;;;;;;3.50;2.30;;;;;;;6.56;71.87;93733.45;110408;1276;22981;-76
2023/01/17 10:02:27;;;;;;;3.10;2.10;;;;;;;6.57;73.33;93730.29;110378;1276;22192;-76
2023/01/17 10:05:05;;;;;;;3.40;1.40;;;;;;;6.58;72.18;93731.13;110370;1276;22248;-70
2023/01/17 10:07:49;;;;;;;1.60;1.50;;;;;;;6.62;73.03;93724.67;110351;1270;22153;-72
2023/01/17 10:10:39;;;;;;;2.90;2.50;;;;;;;6.85;73.22;93716.39;110290;1276;22261;-71
2023/01/17 10:13:19;;;;;;;2.10;1.80;;;;;;;7.23;73.90;93708.60;110300;1276;22256;-72
2023/01/17 10:16:00;;;;;;;3.20;1.80;;;;;;;7.37;73.85;93707.91;110376;1276;22659;-72
2023/01/17 10:18:28;;;;;;;2.60;2.20;;;;;;;7.63;74.33;93709.40;110393;1276;22836;-71
2023/01/17 10:21:08;;;;;;;0.70;0.70;;;;;;;7.74;73.46;93707.58;110342;1276;22147;-71
2023/01/17 10:23:40;;;;;;;1.10;1.00;;;;;;;7.67;70.94;93704.17;110349;1273;22189;-70
2023/01/17 10:26:15;;;;;;;0.60;0.60;;;;;;;7.69;70.61;93704.98;110325;1277;22376;-71
2023/01/17 10:28:50;;;;;;;1.80;1.60;;;;;;;7.85;68.74;93708.55;110376;1273;23273;-73
2023/01/17 10:31:24;;;;;;;2.10;1.90;;;;;;;8.17;69.46;93711.17;110283;1276;22945;-71
2023/01/17 10:34:17;;;;;;;1.30;1.10;;;;;;;8.61;68.83;93705.60;110284;1276;22294;-73
2023/01/17 10:37:10;;;;;;;1.00;0.90;;;;;;;9.09;67.37;93706.00;110389;1276;22325;-72
2023/01/17 10:39:38;;;;;;;0.70;0.60;;;;;;;9.35;62.97;93699.26;110389;1276;22184;-73
2023/01/17 10:42:34;;;;;;;1.70;1.60;;;;;;;9.38;63.01;93708.09;110419;1270;22165;-73
2023/01/17 10:45:15;;;;;;;1.90;0.90;;;;;;;9.25;63.25;93709.70;110374;1276;22143;-72
2023/01/17 10:47:50;;;;;;;0.80;0.70;;;;;;;9.29;63.67;93710.41;110335;1271;22228;-73
2023/01/17 10:50:22;;;;;;;0.80;0.80;;;;;;;9.68;62.91;93704.82;110401;1276;22180;-71
2023/01/17 10:52:57;;;;;;;0.70;0.70;;;;;;;9.98;61.27;93694.30;110329;1276;22211;-72
2023/01/17 10:55:47;;;;;;;0.50;0.50;;;;;;;10.26;61.57;93697.90;110405;1276;22150;-72
2023/01/17 10:58:15;;;;;;;0.70;0.50;;;;;;;10.42;58.76;93694.21;110410;1276;22125;-71
2023/01/17 11:01:01;;;;;;;0.90;0.70;;;;;;;10.64;59.28;93684.69;110354;1276;22245;-70
2023/01/17 11:03:30;;;;;;;0.70;0.40;;;;;;;10.82;58.13;93685.88;110097;1276;23034;-71
2023/01/17 11:06:32;;;;;;;0.90;0.60;;;;;;;10.94;58.07;93682.12;110384;1276;22236;-71
2023/01/17 11:09:02;;;;;;;1.20;0.80;;;;;;;11.02;58.39;93685.91;110363;1276;22182;-72
2023/01/17 11:11:33;;;;;;;1.70;0.90;;;;;;;11.09;56.31;93698.63;110405;1276;22235;-72
2023/01/17 11:14:24;;;;;;;3.50;3.20;;;;;;;11.12;57.29;93695.48;110332;1276;22181;-72
2023/01/17 11:17:01;;;;;;;2.10;1.70;;;;;;;11.28;57.31;93691.30;110401;1276;22788;-72
2023/01/17 11:19:35;;;;;;;1.10;0.40;;;;;;;11.33;54.94;93696.14;110103;1276;22160;-71
2023/01/17 11:22:08;;;;;;;1.80;0.90;;;;;;;11.45;55.09;93696.59;110328;1276;22316;-70
2023/01/17 11:24:52;;;;;;;0.50;0.50;;;;;;;11.70;54.30;93705.83;110340;1276;22269;-71
2023/01/17 11:27:41;;;;;;;0.40;0.40;;;;;;;12.02;51.26;93700.43;110338;1276;22191;-71
2023/01/17 11:30:15;;;;;;;1.40;1.10;;;;;;;12.24;50.94;93696.59;110372;1276;22150;-72
2023/01/17 11:33:04;;;;;;;1.00;0.90;;;;;;;12.38;52.36;93696.88;110338;1276;22128;-71
2023/01/17 11:35:37;;;;;;;0.90;0.40;;;;;;;12.69;50.05;93691.26;110383;1276;22183;-71
2023/01/17 11:38:13;;;;;;;;;;;;;;;13.03;49.66;93680.09;110355;1276;22261;-72
2023/01/17 11:40:43;;;;;;;0.70;0.70;;;;;;;13.06;47.72;93682.73;110326;1276;22125;-72
2023/01/17 11:43:17;;;;;;;1.20;1.10;;;;;;;13.03;46.83;93687.32;110388;1276;22238;-72
2023/01/17 11:46:00;;;;;;;0.30;0.30;;;;;;;13.32;49.05;93674.36;110344;1276;22951;-71
2023/01/17 11:48:36;;;;;;;;;;;;;;;13.83;46.78;93675.35;110363;1276;22205;-73
2023/01/17 11:51:23;;;;;;;2.50;2.30;;;;;;;13.91;45.06;93673.39;110398;1276;22915;-71
2023/01/17 11:53:53;;;;;;;1.60;0.60;;;;;;;14.02;44.85;93672.90;110359;1276;22244;-72
2023/01/17 11:56:36;;;;;;;0.60;0.40;;;;;;;14.31;44.43;93672.80;110410;1276;22249;-71
2023/01/17 11:59:36;;;;;;;0.40;0.40;;;;;;;14.54;43.83;93676.17;110398;1276;22088;-72
2023/01/17 12:02:32;;;;;;;1.10;0.60;;;;;;;14.74;43.60;93670.63;110371;1276;22887;-71
2023/01/17 12:05:00;;;;;;;0.80;0.80;;;;;;;14.71;42.54;93670.61;110368;1276;22310;-71
2023/01/17 12:07:41;;;;;;;2.30;1.70;;;;;;;13.90;42.65;93680.16;110367;1276;22149;-71
2023/01/17 12:10:10;;;;;;;1.40;1.10;;;;;;;13.62;43.77;93682.98;110380;1276;22136;-71
2023/01/17 12:15:56;;;;;;;1.70;1.30;;;;;;;14.06;43.91;93673.20;110375;1276;22225;-72
2023/01/17 12:18:33;;;;;;;0.70;0.60;;;;;;;14.49;41.57;93673.96;110311;1277;23386;-72
2023/01/17 12:21:16;;;;;;;1.00;0.90;;;;;;;14.52;41.87;93672.90;110382;1276;22135;-73
2023/01/17 12:24:20;;;;;;;0.70;0.40;;;;;;;14.39;41.48;93675.66;110373;1276;22345;-73
2023/01/17 12:26:53;;;;;;;0.90;0.90;;;;;;;14.70;42.46;93678.68;110397;1277;23026;-72
2023/01/17 12:29:42;;;;;;;2.00;1.90;;;;;;;15.30;41.42;93677.87;110398;1276;22241;-72
2023/01/17 12:32:31;;;;;;;2.10;1.90;;;;;;;15.74;39.85;93683.05;110140;1276;22388;-72
2023/01/17 12:35:11;;;;;;;2.60;2.40;;;;;;;14.71;39.32;93679.29;110374;1276;22175;-72
2023/01/17 12:37:43;;;;;;;1.00;0.80;;;;;;;14.16;41.45;93670.42;110406;1276;22126;-73
2023/01/17 12:40:34;;;;;;;0.40;0.40;;;;;;;14.23;41.88;93667.30;110387;1276;22225;-72
2023/01/17 12:43:07;;;;;;;1.80;1.40;;;;;;;14.79;41.94;93655.12;110398;1276;22136;-73
2023/01/17 12:45:44;;;;;;;2.20;2.00;;;;;;;15.42;40.34;93657.76;110391;1276;22115;-71
2023/01/17 12:48:19;;;;;;;2.80;2.60;;;;;;;15.70;39.41;93659.89;110390;1276;23018;-71
2023/01/17 12:51:04;;;;;;;0.80;0.50;;;;;;;16.06;38.48;93665.75;110390;1276;22234;-71
2023/01/17 12:54:00;;;;;;;2.10;0.80;;;;;;;15.82;38.25;93667.99;110378;1276;22186;-72
2023/01/17 12:56:58;;;;;;;0.40;0.30;;;;;;;16.17;39.44;93681.45;110387;1276;22114;-72
2023/01/17 12:59:45;;;;;;;0.90;0.80;;;;;;;16.33;36.93;93682.64;110407;1276;22752;-73
2023/01/17 13:02:24;;;;;;;0.80;0.80;;;;;;;16.78;38.37;93685.80;110380;1276;22814;-73
2023/01/17 13:05:01;;;;;;;0.40;0.40;;;;;;;17.04;37.85;93686.77;110404;1276;22137;-72
2023/01/17 13:07:49;;;;;;;0.70;0.30;;;;;;;17.41;36.43;93690.69;110358;1276;22147;-72
2023/01/17 13:10:21;;;;;;;0.50;0.30;;;;;;;17.30;35.37;93701.48;110389;1276;22129;-73
2023/01/17 13:12:50;;;;;;;3.50;2.30;;;;;;;17.01;35.70;93697.98;110395;1276;22873;-74